Time;durP1;ratioP1;P1;durP2;ratioP2;P2;SDS_P1;SDS_P2;PMS_P1;PMS_P2;Temp;Humidity;BMP_temperature;BMP_pressure;BME280_temperature;BME280_humidity;BME280_pressure;Samples;Min_cycle;Max_cycle;Signal;HPM_P1;HPM_P2
2022/04/18 00:01:36;;;;;;;16.73;10.95;;;;;;;;;;4976272;28;20237;-62
2022/04/18 00:04:02;;;;;;;17.13;10.43;;;;;;;;;;4966520;28;20249;-62
2022/04/18 00:06:27;;;;;;;16.95;10.88;;;;;;;;;;4965831;28;20210;-62
2022/04/18 00:08:52;;;;;;;17.95;10.82;;;;;;;;;;4966694;28;20236;-62
2022/04/18 00:11:18;;;;;;;16.23;10.95;;;;;;;;;;4961696;28;20355;-62
2022/04/18 00:13:43;;;;;;;18.50;10.52;;;;;;;;;;4957544;28;20689;-62
2022/04/18 00:16:08;;;;;;;17.60;11.95;;;;;;;;;;4974284;28;20205;-62
2022/04/18 00:18:33;;;;;;;15.48;10.48;;;;;;;;;;4982065;28;20213;-62
2022/04/18 00:20:59;;;;;;;18.08;10.85;;;;;;;;;;4983558;28;20368;-62
2022/04/18 00:23:24;;;;;;;16.70;10.57;;;;;;;;;;4985169;28;20216;-62
2022/04/18 00:25:49;;;;;;;15.30;11.15;;;;;;;;;;4985550;28;20583;-62
2022/04/18 00:28:15;;;;;;;17.70;11.48;;;;;;;;;;4984284;28;20324;-62
2022/04/18 00:30:41;;;;;;;17.10;11.38;;;;;;;;;;4967596;28;21175;-62
2022/04/18 00:33:08;;;;;;;19.58;11.95;;;;;;;;;;4963756;28;21012;-62
2022/04/18 00:35:34;;;;;;;17.55;12.23;;;;;;;;;;4958222;28;20292;-62
2022/04/18 00:37:59;;;;;;;16.77;11.52;;;;;;;;;;4976844;28;20807;-62
2022/04/18 00:40:24;;;;;;;16.63;11.15;;;;;;;;;;4979176;28;20776;-62
2022/04/18 00:42:50;;;;;;;15.50;11.80;;;;;;;;;;4965468;28;20225;-62
2022/04/18 00:45:15;;;;;;;18.13;11.70;;;;;;;;;;4965543;28;20213;-62
2022/04/18 00:47:41;;;;;;;17.92;11.40;;;;;;;;;;4984301;28;20708;-62
2022/04/18 00:50:06;;;;;;;15.10;11.73;;;;;;;;;;4969610;28;20224;-62
2022/04/18 00:52:31;;;;;;;16.23;11.50;;;;;;;;;;4965923;28;20280;-62
2022/04/18 00:54:57;;;;;;;17.90;11.50;;;;;;;;;;4982166;28;20291;-62
2022/04/18 00:57:22;;;;;;;17.48;11.93;;;;;;;;;;4973149;28;20217;-62
2022/04/18 00:59:47;;;;;;;17.55;11.85;;;;;;;;;;4966693;28;20206;-62
2022/04/18 01:02:14;;;;;;;16.92;12.23;;;;;;;;;;4957918;28;20780;-62
2022/04/18 01:04:39;;;;;;;16.95;11.93;;;;;;;;;;4983143;28;20220;-62
2022/04/18 01:07:04;;;;;;;18.98;12.65;;;;;;;;;;4984286;28;20217;-62
2022/04/18 01:09:30;;;;;;;19.30;12.13;;;;;;;;;;4983168;28;20217;-62
2022/04/18 01:11:55;;;;;;;16.80;11.63;;;;;;;;;;4984593;28;20227;-62
2022/04/18 01:14:20;;;;;;;15.63;10.85;;;;;;;;;;4984386;28;20224;-62
2022/04/18 01:16:46;;;;;;;19.17;12.00;;;;;;;;;;4984012;28;20213;-62
2022/04/18 01:19:11;;;;;;;18.38;12.57;;;;;;;;;;4979367;28;20235;-62
2022/04/18 01:21:36;;;;;;;19.23;11.63;;;;;;;;;;4976468;28;20702;-62
2022/04/18 01:28:58;;;;;;;19.27;12.25;;;;;;;;;;4975363;28;20292;-62
2022/04/18 01:29:30;;;;;;;16.98;11.13;;;;;;;;;;4975705;28;20225;-62
2022/04/18 01:31:56;;;;;;;15.88;10.85;;;;;;;;;;4964452;28;20213;-62
2022/04/18 01:34:21;;;;;;;18.00;11.68;;;;;;;;;;4964602;28;20217;-62
2022/04/18 01:36:46;;;;;;;19.02;11.52;;;;;;;;;;4965263;28;20213;-62
2022/04/18 01:39:12;;;;;;;16.25;10.68;;;;;;;;;;4963960;28;20284;-62
2022/04/18 01:41:37;;;;;;;14.55;10.63;;;;;;;;;;4961029;28;20210;-62
2022/04/18 01:44:02;;;;;;;16.80;10.43;;;;;;;;;;4956396;28;20935;-62
2022/04/18 01:46:28;;;;;;;18.67;11.65;;;;;;;;;;4957005;28;20212;-62
2022/04/18 01:48:53;;;;;;;16.42;11.13;;;;;;;;;;4965541;28;20320;-62
2022/04/18 01:51:18;;;;;;;18.70;11.80;;;;;;;;;;4982799;28;20324;-62
2022/04/18 01:53:44;;;;;;;16.00;10.45;;;;;;;;;;4983956;28;20213;-62
2022/04/18 01:56:09;;;;;;;14.98;10.18;;;;;;;;;;4983162;28;20239;-62
2022/04/18 01:58:34;;;;;;;17.92;10.90;;;;;;;;;;4970825;28;20651;-62
2022/04/18 02:01:00;;;;;;;16.08;10.32;;;;;;;;;;4964999;28;20245;-62
2022/04/18 02:03:25;;;;;;;18.27;11.23;;;;;;;;;;4962939;28;20229;-62
2022/04/18 02:05:52;;;;;;;18.05;11.30;;;;;;;;;;4954306;28;20221;-62
2022/04/18 02:08:17;;;;;;;15.63;10.98;;;;;;;;;;4974675;28;20236;-62
2022/04/18 02:10:43;;;;;;;16.85;10.77;;;;;;;;;;4976990;28;20205;-62
2022/04/18 02:13:09;;;;;;;18.08;10.13;;;;;;;;;;4963420;28;20657;-62
2022/04/18 02:15:34;;;;;;;15.55;10.60;;;;;;;;;;4964697;28;20305;-62
2022/04/18 02:17:59;;;;;;;17.02;11.25;;;;;;;;;;4964478;28;20222;-62
2022/04/18 02:20:25;;;;;;;16.45;11.00;;;;;;;;;;4963006;28;20217;-62
2022/04/18 02:22:50;;;;;;;16.33;10.80;;;;;;;;;;4964467;28;20210;-62
2022/04/18 02:25:16;;;;;;;18.15;10.88;;;;;;;;;;4963538;28;20249;-62
2022/04/18 02:27:41;;;;;;;17.48;10.68;;;;;;;;;;4957763;28;20340;-62
2022/04/18 02:30:09;;;;;;;18.10;11.40;;;;;;;;;;4956103;28;20221;-62
2022/04/18 02:32:47;;;;;;;17.10;11.00;;;;;;;;;;4975797;28;20205;-62
2022/04/18 02:35:13;;;;;;;16.55;11.55;;;;;;;;;;4980377;28;20786;-62
2022/04/18 02:37:38;;;;;;;17.33;11.35;;;;;;;;;;4982686;28;20209;-63
2022/04/18 02:40:05;;;;;;;16.48;10.55;;;;;;;;;;4982847;28;20307;-62
2022/04/18 02:42:30;;;;;;;15.70;11.38;;;;;;;;;;4982518;28;20225;-62
2022/04/18 02:44:55;;;;;;;16.27;11.35;;;;;;;;;;4982940;28;20224;-62
2022/04/18 02:47:22;;;;;;;18.15;11.23;;;;;;;;;;4981913;28;20525;-62
2022/04/18 02:49:47;;;;;;;17.88;11.65;;;;;;;;;;4966005;28;20218;-62
2022/04/18 02:52:12;;;;;;;16.98;11.35;;;;;;;;;;4974335;28;20220;-62
2022/04/18 02:54:38;;;;;;;17.17;11.48;;;;;;;;;;4974091;28;20664;-62
2022/04/18 02:57:03;;;;;;;17.45;11.40;;;;;;;;;;4978802;28;20210;-62
2022/04/18 02:59:28;;;;;;;17.38;11.48;;;;;;;;;;4963876;28;20783;-62
2022/04/18 03:01:54;;;;;;;20.73;11.27;;;;;;;;;;4963322;28;20222;-62
2022/04/18 03:04:19;;;;;;;16.33;11.13;;;;;;;;;;4963161;28;20217;-62
2022/04/18 03:06:44;;;;;;;17.85;11.07;;;;;;;;;;4964072;28;20285;-62
2022/04/18 03:09:09;;;;;;;17.08;11.35;;;;;;;;;;4962458;28;20254;-62
2022/04/18 03:11:35;;;;;;;17.75;11.50;;;;;;;;;;4961843;28;20210;-62
2022/04/18 03:14:00;;;;;;;17.90;11.55;;;;;;;;;;4956006;28;20222;-62
2022/04/18 03:16:25;;;;;;;16.13;10.73;;;;;;;;;;4954962;28;20209;-64
2022/04/18 03:18:51;;;;;;;16.33;11.30;;;;;;;;;;4958498;28;20221;-62
2022/04/18 03:21:17;;;;;;;16.08;11.23;;;;;;;;;;4963679;28;20209;-62
2022/04/18 03:23:44;;;;;;;17.90;11.80;;;;;;;;;;4963237;28;20220;-62
2022/04/18 03:26:10;;;;;;;16.92;11.23;;;;;;;;;;4963209;28;20220;-62
2022/04/18 03:28:35;;;;;;;17.40;11.65;;;;;;;;;;4963934;28;20221;-62
2022/04/18 03:31:00;;;;;;;18.40;12.27;;;;;;;;;;4962935;28;20221;-62
2022/04/18 03:33:25;;;;;;;17.30;12.02;;;;;;;;;;4982147;28;20215;-62
2022/04/18 03:41:18;;;;;;;19.50;11.55;;;;;;;;;;4975746;28;20303;-62
2022/04/18 03:43:44;;;;;;;17.13;11.05;;;;;;;;;;4982216;28;20266;-62
2022/04/18 03:46:09;;;;;;;18.52;11.73;;;;;;;;;;4968162;28;20703;-62
2022/04/18 03:48:34;;;;;;;16.42;11.13;;;;;;;;;;4965264;28;20240;-62
2022/04/18 03:50:59;;;;;;;15.18;10.98;;;;;;;;;;4965982;28;20703;-62
2022/04/18 03:53:25;;;;;;;17.63;11.65;;;;;;;;;;4966891;28;20214;-62
2022/04/18 03:55:50;;;;;;;17.13;11.15;;;;;;;;;;4966529;28;20226;-62
2022/04/18 03:58:15;;;;;;;15.88;11.25;;;;;;;;;;4959228;28;20225;-62
2022/04/18 04:00:42;;;;;;;17.17;11.52;;;;;;;;;;4959370;28;20217;-62
2022/04/18 04:03:08;;;;;;;19.45;11.32;;;;;;;;;;4976293;28;20706;-62
2022/04/18 04:05:33;;;;;;;16.48;11.55;;;;;;;;;;4983606;28;20300;-62
2022/04/18 04:07:58;;;;;;;18.02;11.18;;;;;;;;;;4986018;28;20229;-62
2022/04/18 04:10:24;;;;;;;19.23;11.65;;;;;;;;;;4985375;28;20417;-62
2022/04/18 04:12:49;;;;;;;19.45;11.55;;;;;;;;;;4984995;28;20217;-62
2022/04/18 04:15:14;;;;;;;17.48;11.43;;;;;;;;;;4985497;28;20209;-62
2022/04/18 04:17:40;;;;;;;14.90;10.35;;;;;;;;;;4985885;28;20240;-62
2022/04/18 04:20:05;;;;;;;17.38;10.63;;;;;;;;;;4979499;28;20221;-62
2022/04/18 04:22:31;;;;;;;21.15;11.82;;;;;;;;;;4956744;28;20225;-62
2022/04/18 04:24:57;;;;;;;19.25;11.27;;;;;;;;;;4958800;28;20210;-62
2022/04/18 04:27:22;;;;;;;16.15;11.30;;;;;;;;;;4980619;28;20216;-62
2022/04/18 04:29:48;;;;;;;20.52;11.32;;;;;;;;;;4974594;28;20736;-62
2022/04/18 04:32:13;;;;;;;16.58;11.05;;;;;;;;;;4966345;28;20214;-62
2022/04/18 04:34:40;;;;;;;15.85;11.32;;;;;;;;;;4965605;28;20312;-62
2022/04/18 04:37:05;;;;;;;18.60;12.07;;;;;;;;;;4984708;28;20209;-62
2022/04/18 04:39:31;;;;;;;16.15;10.95;;;;;;;;;;4985345;28;20298;-62
2022/04/18 04:41:57;;;;;;;18.63;10.82;;;;;;;;;;4982854;28;20209;-62
2022/04/18 04:44:22;;;;;;;16.50;10.98;;;;;;;;;;4977098;28;20201;-62
2022/04/18 04:46:47;;;;;;;16.25;11.48;;;;;;;;;;4976676;28;20217;-62
2022/04/18 04:49:12;;;;;;;15.05;10.75;;;;;;;;;;4970423;28;20590;-62
2022/04/18 04:51:39;;;;;;;18.67;11.60;;;;;;;;;;4965634;28;20217;-62
2022/04/18 04:54:04;;;;;;;18.42;11.80;;;;;;;;;;4983820;28;20296;-62
2022/04/18 04:56:30;;;;;;;17.38;11.18;;;;;;;;;;4984730;28;20323;-62
2022/04/18 04:58:55;;;;;;;17.95;11.63;;;;;;;;;;4969305;28;20217;-62
2022/04/18 05:01:21;;;;;;;19.08;12.00;;;;;;;;;;4965276;28;20322;-62
2022/04/18 05:03:46;;;;;;;19.77;11.43;;;;;;;;;;4965867;28;20744;-62
2022/04/18 05:06:12;;;;;;;16.25;11.05;;;;;;;;;;4958113;28;20260;-62
2022/04/18 05:08:38;;;;;;;16.65;11.57;;;;;;;;;;4957220;28;20293;-62
2022/04/18 05:11:03;;;;;;;17.23;11.77;;;;;;;;;;4958292;28;20222;-62
2022/04/18 05:13:29;;;;;;;15.93;11.00;;;;;;;;;;4964203;28;20217;-62
2022/04/18 05:15:54;;;;;;;18.58;11.25;;;;;;;;;;4964901;28;20214;-62
2022/04/18 05:18:19;;;;;;;14.60;10.30;;;;;;;;;;4965181;28;20324;-62
2022/04/18 05:20:45;;;;;;;14.65;10.23;;;;;;;;;;4984160;28;20216;-62
2022/04/18 05:23:12;;;;;;;16.15;10.05;;;;;;;;;;4983510;28;20729;-62
2022/04/18 05:25:37;;;;;;;17.10;10.18;;;;;;;;;;4984532;28;20213;-62
2022/04/18 05:28:03;;;;;;;16.02;10.38;;;;;;;;;;4983963;28;20619;-62
2022/04/18 05:30:28;;;;;;;14.73;10.57;;;;;;;;;;4991879;28;20742;-62
2022/04/18 05:32:53;;;;;;;14.60;10.85;;;;;;;;;;4994629;28;20714;-62
2022/04/18 05:35:20;;;;;;;15.40;10.20;;;;;;;;;;4993703;28;20217;-63
2022/04/18 05:37:46;;;;;;;14.38;10.88;;;;;;;;;;4993403;28;20426;-62
2022/04/18 05:40:11;;;;;;;15.02;11.30;;;;;;;;;;4993546;28;20217;-61
2022/04/18 05:42:36;;;;;;;14.95;10.32;;;;;;;;;;4994015;28;20197;-62
2022/04/18 05:45:02;;;;;;;15.48;9.68;;;;;;;;;;4992268;28;20732;-64
2022/04/18 05:47:27;;;;;;;17.40;10.52;;;;;;;;;;4993606;28;20201;-63
2022/04/18 05:49:52;;;;;;;15.18;10.07;;;;;;;;;;4993225;28;20296;-63
2022/04/18 05:52:18;;;;;;;13.77;9.98;;;;;;;;;;4992593;28;20209;-63
2022/04/18 05:54:43;;;;;;;13.85;10.10;;;;;;;;;;4992684;28;20221;-63
2022/04/18 05:57:08;;;;;;;16.60;10.18;;;;;;;;;;4991918;28;20224;-63
2022/04/18 05:59:34;;;;;;;14.63;9.82;;;;;;;;;;4993450;28;20212;-63
2022/04/18 06:01:59;;;;;;;13.82;9.25;;;;;;;;;;4993250;28;20683;-62
2022/04/18 06:04:24;;;;;;;13.68;9.90;;;;;;;;;;4992223;28;20213;-63
2022/04/18 06:06:50;;;;;;;13.48;9.32;;;;;;;;;;4993226;28;20557;-63
2022/04/18 06:09:15;;;;;;;17.60;11.15;;;;;;;;;;4993081;28;20712;-62
2022/04/18 06:11:40;;;;;;;13.45;10.13;;;;;;;;;;4992695;28;20223;-63
2022/04/18 06:14:07;;;;;;;16.17;10.23;;;;;;;;;;4993404;28;20716;-63
2022/04/18 06:16:33;;;;;;;14.55;11.50;;;;;;;;;;4993632;28;20688;-63
2022/04/18 06:18:58;;;;;;;13.57;10.10;;;;;;;;;;4991778;28;20264;-64
2022/04/18 06:21:23;;;;;;;15.18;11.27;;;;;;;;;;4992473;28;20217;-64
2022/04/18 06:23:48;;;;;;;13.68;10.80;;;;;;;;;;4993629;28;20639;-63
2022/04/18 06:26:14;;;;;;;13.40;10.07;;;;;;;;;;4992316;28;20217;-63
2022/04/18 06:28:39;;;;;;;14.27;10.18;;;;;;;;;;4993264;28;20217;-63
2022/04/18 06:31:04;;;;;;;17.40;10.45;;;;;;;;;;4992657;28;20280;-64
2022/04/18 06:33:29;;;;;;;14.30;10.80;;;;;;;;;;4992584;28;20550;-64
2022/04/18 06:35:55;;;;;;;12.63;9.15;;;;;;;;;;4993137;28;20266;-62
2022/04/18 06:38:20;;;;;;;13.85;9.95;;;;;;;;;;4993123;28;20209;-63
2022/04/18 06:40:45;;;;;;;13.18;10.07;;;;;;;;;;4992373;28;20699;-64
2022/04/18 06:43:11;;;;;;;12.88;9.88;;;;;;;;;;4993052;28;20209;-63
2022/04/18 06:45:36;;;;;;;13.40;9.65;;;;;;;;;;4993141;28;20209;-62
2022/04/18 06:48:01;;;;;;;13.43;9.35;;;;;;;;;;4991886;28;20315;-64
2022/04/18 06:50:27;;;;;;;11.32;8.63;;;;;;;;;;4993397;28;20680;-63
2022/04/18 06:52:54;;;;;;;12.48;8.52;;;;;;;;;;4993111;28;20263;-63
2022/04/18 06:55:19;;;;;;;13.73;8.93;;;;;;;;;;4991625;28;20229;-64
2022/04/18 06:57:45;;;;;;;13.77;9.45;;;;;;;;;;4990200;28;20213;-63
2022/04/18 07:00:10;;;;;;;12.98;9.20;;;;;;;;;;4991238;28;20735;-63
2022/04/18 07:02:35;;;;;;;14.18;9.77;;;;;;;;;;4990667;28;20287;-63
2022/04/18 07:05:00;;;;;;;13.95;9.02;;;;;;;;;;4992136;28;20216;-64
2022/04/18 07:07:26;;;;;;;13.35;8.93;;;;;;;;;;4991912;28;20208;-63
2022/04/18 07:09:51;;;;;;;14.10;9.20;;;;;;;;;;4990796;28;20255;-63
2022/04/18 07:12:22;;;;;;;13.32;9.43;;;;;;;;;;4990386;28;20201;-64
2022/04/18 07:14:47;;;;;;;14.50;9.40;;;;;;;;;;4992054;28;20215;-60
2022/04/18 07:17:13;;;;;;;14.90;9.82;;;;;;;;;;4991483;28;20209;-63
2022/04/18 07:19:38;;;;;;;16.42;9.73;;;;;;;;;;4993000;28;20201;-63
2022/04/18 07:22:03;;;;;;;13.32;8.90;;;;;;;;;;4992307;28;20216;-63
2022/04/18 07:24:29;;;;;;;12.77;9.00;;;;;;;;;;4996895;28;20237;-62
2022/04/18 07:27:00;;;;;;;15.05;9.13;;;;;;;;;;4996721;28;20209;-62
2022/04/18 07:29:25;;;;;;;11.38;8.93;;;;;;;;;;4995216;28;20648;-63
2022/04/18 07:31:51;;;;;;;15.10;9.23;;;;;;;;;;4994706;28;20217;-63
2022/04/18 07:34:16;;;;;;;14.13;8.68;;;;;;;;;;4995855;28;20224;-62
2022/04/18 07:36:41;;;;;;;14.52;9.27;;;;;;;;;;4996721;28;20205;-62
2022/04/18 07:39:08;;;;;;;11.55;8.63;;;;;;;;;;4996268;28;20249;-63
2022/04/18 07:41:33;;;;;;;13.45;8.63;;;;;;;;;;4997044;28;20568;-63
2022/04/18 07:43:58;;;;;;;8.80;6.35;;;;;;;;;;4995766;28;20660;-63
2022/04/18 07:46:24;;;;;;;13.35;7.55;;;;;;;;;;4996007;28;20300;-62
2022/04/18 07:48:50;;;;;;;11.18;6.88;;;;;;;;;;4996223;28;20352;-63
2022/04/18 07:51:32;;;;;;;11.50;5.93;;;;;;;;;;4995296;28;20283;-63
2022/04/18 07:53:57;;;;;;;9.77;5.90;;;;;;;;;;4996536;28;20213;-63
2022/04/18 07:56:22;;;;;;;8.82;5.70;;;;;;;;;;4995759;28;20229;-61
2022/04/18 07:58:48;;;;;;;9.32;5.90;;;;;;;;;;4995083;28;20249;-60
2022/04/18 08:01:13;;;;;;;8.60;5.20;;;;;;;;;;4995548;28;20695;-61
2022/04/18 08:03:38;;;;;;;8.25;5.50;;;;;;;;;;4996051;28;20212;-61
2022/04/18 08:06:04;;;;;;;7.53;5.00;;;;;;;;;;4994891;28;20582;-63
2022/04/18 08:08:30;;;;;;;9.30;5.57;;;;;;;;;;4995036;28;20825;-60
2022/04/18 08:10:55;;;;;;;7.15;5.10;;;;;;;;;;4995435;28;20220;-62
2022/04/18 08:13:20;;;;;;;8.05;5.15;;;;;;;;;;4993897;28;20219;-60
2022/04/18 08:15:45;;;;;;;8.20;5.13;;;;;;;;;;4996151;28;20303;-60
2022/04/18 08:18:11;;;;;;;8.48;5.10;;;;;;;;;;4994481;28;20213;-61
2022/04/18 08:20:37;;;;;;;7.00;4.68;;;;;;;;;;4995791;28;20217;-61
2022/04/18 08:23:02;;;;;;;6.70;4.90;;;;;;;;;;4995618;28;20228;-62
2022/04/18 08:25:27;;;;;;;7.35;4.85;;;;;;;;;;4994954;28;20213;-61
2022/04/18 08:27:53;;;;;;;6.75;4.70;;;;;;;;;;4995345;28;20224;-62
2022/04/18 08:30:18;;;;;;;8.95;4.78;;;;;;;;;;4995227;28;20680;-62
2022/04/18 08:32:43;;;;;;;7.53;4.60;;;;;;;;;;4994743;28;20240;-62
2022/04/18 08:35:09;;;;;;;6.80;4.55;;;;;;;;;;4994114;28;20213;-61
2022/04/18 08:37:34;;;;;;;7.18;4.53;;;;;;;;;;4995678;28;20242;-60
2022/04/18 08:40:00;;;;;;;6.00;4.18;;;;;;;;;;4994650;28;20217;-61
2022/04/18 08:42:26;;;;;;;7.30;4.40;;;;;;;;;;4995055;28;20574;-61
2022/04/18 08:44:51;;;;;;;7.53;4.35;;;;;;;;;;4995486;28;20215;-61
2022/04/18 08:52:45;;;;;;;6.75;4.25;;;;;;;;;;4994699;28;20211;-61
2022/04/18 08:55:11;;;;;;;7.38;3.80;;;;;;;;;;4993969;28;20626;-61
2022/04/18 08:57:36;;;;;;;8.77;4.45;;;;;;;;;;4994942;28;20664;-61
2022/04/18 09:00:02;;;;;;;5.95;4.18;;;;;;;;;;4993926;28;20698;-61
2022/04/18 09:02:27;;;;;;;5.82;3.92;;;;;;;;;;4995030;28;20209;-61
2022/04/18 09:04:53;;;;;;;7.63;4.32;;;;;;;;;;4994981;28;20545;-61
2022/04/18 09:07:18;;;;;;;7.22;4.28;;;;;;;;;;4993987;28;20217;-61
2022/04/18 09:09:43;;;;;;;8.45;4.40;;;;;;;;;;4995012;28;20229;-61
2022/04/18 09:12:18;;;;;;;7.13;4.20;;;;;;;;;;4994305;28;20293;-61
2022/04/18 09:14:48;;;;;;;5.97;4.07;;;;;;;;;;4994109;28;20208;-61
2022/04/18 09:17:19;;;;;;;5.10;3.72;;;;;;;;;;4994507;28;20216;-61
2022/04/18 09:19:44;;;;;;;7.45;4.15;;;;;;;;;;4993273;28;20212;-61
2022/04/18 09:22:09;;;;;;;6.32;3.80;;;;;;;;;;4993819;28;20580;-61
2022/04/18 09:24:35;;;;;;;6.30;4.03;;;;;;;;;;4994873;28;20217;-61
2022/04/18 09:27:06;;;;;;;6.57;4.28;;;;;;;;;;4994349;28;20209;-61
2022/04/18 09:29:33;;;;;;;7.35;3.55;;;;;;;;;;4993677;28;20225;-61
2022/04/18 09:31:59;;;;;;;7.38;3.90;;;;;;;;;;4994590;28;20209;-60
2022/04/18 09:34:24;;;;;;;8.63;3.83;;;;;;;;;;4992738;28;20213;-61
2022/04/18 09:36:56;;;;;;;5.53;3.72;;;;;;;;;;4992622;28;20228;-61
2022/04/18 09:39:22;;;;;;;6.13;3.60;;;;;;;;;;4993649;28;20248;-61
2022/04/18 09:41:47;;;;;;;5.57;3.47;;;;;;;;;;4993161;28;20236;-61
2022/04/18 09:44:13;;;;;;;6.53;3.72;;;;;;;;;;4993249;28;20224;-61
2022/04/18 09:46:38;;;;;;;6.28;3.80;;;;;;;;;;4991904;28;20296;-61
2022/04/18 09:49:03;;;;;;;6.55;4.00;;;;;;;;;;4993339;28;20229;-61
2022/04/18 09:51:29;;;;;;;5.63;3.60;;;;;;;;;;4993403;28;20636;-60
2022/04/18 09:53:57;;;;;;;6.95;3.80;;;;;;;;;;4994191;28;20231;-61
2022/04/18 09:56:22;;;;;;;6.15;3.95;;;;;;;;;;4992716;28;20253;-60
2022/04/18 09:58:47;;;;;;;5.30;3.72;;;;;;;;;;4991477;28;20251;-60
2022/04/18 10:01:13;;;;;;;7.38;4.30;;;;;;;;;;4993393;28;20206;-61
2022/04/18 10:03:38;;;;;;;6.88;3.53;;;;;;;;;;4993004;28;20655;-60
2022/04/18 10:06:04;;;;;;;5.43;3.83;;;;;;;;;;4993192;28;20570;-60
2022/04/18 10:08:29;;;;;;;6.05;4.03;;;;;;;;;;4993919;28;20355;-60
2022/04/18 10:10:56;;;;;;;5.72;4.05;;;;;;;;;;4993165;28;20578;-60
2022/04/18 10:13:21;;;;;;;6.82;3.60;;;;;;;;;;4993051;28;20296;-60
2022/04/18 10:15:47;;;;;;;4.95;3.45;;;;;;;;;;4993355;28;20340;-59
2022/04/18 10:18:13;;;;;;;5.30;3.70;;;;;;;;;;4990881;28;20216;-60
2022/04/18 10:20:39;;;;;;;6.25;3.50;;;;;;;;;;4993325;28;20295;-60
2022/04/18 10:23:05;;;;;;;4.85;3.72;;;;;;;;;;4993312;28;20224;-60
2022/04/18 10:25:36;;;;;;;5.43;3.80;;;;;;;;;;4992982;28;20249;-60
2022/04/18 10:28:14;;;;;;;5.82;3.97;;;;;;;;;;4991457;28;20229;-60
2022/04/18 10:30:42;;;;;;;6.70;3.85;;;;;;;;;;4993353;28;20284;-60
2022/04/18 10:33:09;;;;;;;5.88;3.63;;;;;;;;;;4992331;28;20606;-61
2022/04/18 10:35:34;;;;;;;5.10;3.70;;;;;;;;;;4992068;28;20220;-60
2022/04/18 10:38:01;;;;;;;7.03;3.70;;;;;;;;;;4993396;28;20220;-64
2022/04/18 10:40:28;;;;;;;6.03;3.90;;;;;;;;;;4992412;28;20622;-64
2022/04/18 10:42:55;;;;;;;4.75;3.28;;;;;;;;;;4992089;28;20216;-63
2022/04/18 10:45:21;;;;;;;4.30;3.20;;;;;;;;;;4992933;28;20292;-63
2022/04/18 10:47:59;;;;;;;4.53;3.08;;;;;;;;;;4992614;28;20633;-63
2022/04/18 10:50:25;;;;;;;4.82;3.20;;;;;;;;;;4992807;28;20287;-64
2022/04/18 10:53:09;;;;;;;5.82;3.40;;;;;;;;;;4992638;28;20312;-64
2022/04/18 10:55:35;;;;;;;3.92;2.75;;;;;;;;;;4992706;28;20229;-63
2022/04/18 10:58:16;;;;;;;4.75;2.90;;;;;;;;;;4991186;28;20227;-64
2022/04/18 11:00:45;;;;;;;4.65;3.10;;;;;;;;;;4990938;28;20239;-64
2022/04/18 11:03:10;;;;;;;3.97;2.50;;;;;;;;;;4992889;28;20217;-64
2022/04/18 11:05:36;;;;;;;4.53;2.72;;;;;;;;;;4992394;28;20227;-64
2022/04/18 11:08:06;;;;;;;3.95;2.78;;;;;;;;;;4990545;28;20810;-63
2022/04/18 11:10:32;;;;;;;3.75;2.40;;;;;;;;;;4990857;28;20220;-64
2022/04/18 11:12:57;;;;;;;4.75;2.80;;;;;;;;;;5007551;28;20213;-63
2022/04/18 11:15:22;;;;;;;4.13;2.75;;;;;;;;;;5006407;28;20245;-64
2022/04/18 11:17:48;;;;;;;5.38;3.15;;;;;;;;;;4992969;28;20236;-65
2022/04/18 11:20:28;;;;;;;4.05;2.60;;;;;;;;;;4992284;28;20213;-64
2022/04/18 11:23:12;;;;;;;4.20;2.40;;;;;;;;;;5007040;28;20623;-63
2022/04/18 11:25:50;;;;;;;5.05;3.15;;;;;;;;;;4992745;28;20213;-64
2022/04/18 11:28:15;;;;;;;4.25;2.50;;;;;;;;;;4991620;28;20229;-66
2022/04/18 11:30:41;;;;;;;3.70;2.42;;;;;;;;;;4992747;28;20220;-65
2022/04/18 11:33:06;;;;;;;4.22;2.85;;;;;;;;;;4992524;28;20240;-64
2022/04/18 11:35:31;;;;;;;5.03;2.53;;;;;;;;;;4992110;28;20215;-64
2022/04/18 11:37:57;;;;;;;3.35;2.40;;;;;;;;;;4992577;28;20217;-64
2022/04/18 11:40:22;;;;;;;4.32;2.53;;;;;;;;;;5007214;28;20217;-64
2022/04/18 11:42:48;;;;;;;4.93;2.72;;;;;;;;;;4992157;28;20685;-64
2022/04/18 11:45:24;;;;;;;4.20;2.78;;;;;;;;;;4992226;28;20205;-64
2022/04/18 11:47:49;;;;;;;4.63;2.88;;;;;;;;;;4992621;28;20227;-64
2022/04/18 11:50:15;;;;;;;4.18;2.53;;;;;;;;;;4991414;28;20225;-64
2022/04/18 11:52:40;;;;;;;3.58;2.70;;;;;;;;;;4992421;28;20241;-65
2022/04/18 11:55:09;;;;;;;5.00;2.80;;;;;;;;;;4991780;28;20328;-64
2022/04/18 11:57:35;;;;;;;5.18;2.40;;;;;;;;;;4991842;28;20231;-64
2022/04/18 12:00:01;;;;;;;3.97;2.72;;;;;;;;;;4991958;28;20685;-64
2022/04/18 12:07:55;;;;;;;3.95;2.80;;;;;;;;;;4992460;28;20228;-64
2022/04/18 12:10:23;;;;;;;3.88;2.50;;;;;;;;;;4993859;28;20229;-64
2022/04/18 12:12:48;;;;;;;3.33;2.50;;;;;;;;;;4996055;28;20695;-64
2022/04/18 12:15:13;;;;;;;4.28;2.65;;;;;;;;;;4995446;28;20301;-64
2022/04/18 12:17:38;;;;;;;4.45;2.85;;;;;;;;;;4995153;28;20205;-64
2022/04/18 12:20:20;;;;;;;3.50;2.47;;;;;;;;;;4995326;28;20683;-65
2022/04/18 12:22:51;;;;;;;5.43;2.40;;;;;;;;;;4994471;28;20706;-64
2022/04/18 12:25:22;;;;;;;4.28;2.40;;;;;;;;;;4994512;28;20224;-65
2022/04/18 12:27:48;;;;;;;3.97;2.38;;;;;;;;;;4995717;28;20771;-64
2022/04/18 12:30:13;;;;;;;4.75;2.83;;;;;;;;;;4995239;28;20213;-64
2022/04/18 12:32:38;;;;;;;4.95;2.83;;;;;;;;;;4994957;28;20636;-64
2022/04/18 12:35:04;;;;;;;4.40;2.80;;;;;;;;;;4995135;28;20213;-64
2022/04/18 12:37:30;;;;;;;6.07;2.92;;;;;;;;;;4995690;28;20209;-64
2022/04/18 12:40:14;;;;;;;5.72;3.40;;;;;;;;;;4994534;28;20224;-64
2022/04/18 12:42:39;;;;;;;5.70;2.90;;;;;;;;;;4993969;28;20559;-64
2022/04/18 12:45:05;;;;;;;5.65;2.83;;;;;;;;;;4994201;28;20216;-64
2022/04/18 12:47:31;;;;;;;4.88;3.22;;;;;;;;;;4995436;28;20221;-64
2022/04/18 12:50:03;;;;;;;4.78;3.03;;;;;;;;;;4995384;28;20363;-64
2022/04/18 12:52:28;;;;;;;4.30;2.75;;;;;;;;;;4994300;28;20213;-64
2022/04/18 12:55:01;;;;;;;5.57;2.42;;;;;;;;;;4994869;28;20237;-64
2022/04/18 12:57:29;;;;;;;3.85;2.25;;;;;;;;;;4994919;28;20209;-64
2022/04/18 12:59:55;;;;;;;4.25;2.30;;;;;;;;;;4994192;28;20217;-64
2022/04/18 13:02:20;;;;;;;4.68;2.58;;;;;;;;;;4994608;28;20224;-64
2022/04/18 13:04:58;;;;;;;3.60;2.65;;;;;;;;;;4994949;28;20205;-64
2022/04/18 13:07:23;;;;;;;4.38;2.60;;;;;;;;;;4994019;28;20231;-64
2022/04/18 13:09:59;;;;;;;4.72;2.78;;;;;;;;;;4994502;28;20622;-64
2022/04/18 13:12:28;;;;;;;5.20;2.65;;;;;;;;;;4993841;28;20213;-64
2022/04/18 13:15:03;;;;;;;5.15;2.78;;;;;;;;;;4994092;28;20707;-64
2022/04/18 13:17:29;;;;;;;4.63;2.80;;;;;;;;;;4994333;28;20570;-64
2022/04/18 13:19:54;;;;;;;6.07;3.03;;;;;;;;;;4994608;28;20626;-64
2022/04/18 13:22:20;;;;;;;6.65;3.22;;;;;;;;;;4993699;28;20774;-64
2022/04/18 13:24:45;;;;;;;5.32;3.17;;;;;;;;;;4994292;28;20296;-64
2022/04/18 13:27:25;;;;;;;6.43;3.42;;;;;;;;;;4998184;28;20212;-65
2022/04/18 13:29:50;;;;;;;4.80;3.00;;;;;;;;;;5013998;28;20220;-64
2022/04/18 13:32:15;;;;;;;4.68;3.38;;;;;;;;;;5013700;28;20288;-64
2022/04/18 13:34:40;;;;;;;4.88;2.85;;;;;;;;;;5013250;28;20212;-64
2022/04/18 13:37:06;;;;;;;6.18;3.28;;;;;;;;;;5009096;28;20572;-64
2022/04/18 13:39:31;;;;;;;4.72;3.05;;;;;;;;;;5006806;28;20744;-64
2022/04/18 13:41:56;;;;;;;3.97;2.83;;;;;;;;;;4993117;28;20206;-65
2022/04/18 13:44:21;;;;;;;7.80;2.83;;;;;;;;;;4993926;28;20201;-64
2022/04/18 13:46:47;;;;;;;4.07;2.60;;;;;;;;;;4994206;28;20688;-64
2022/04/18 13:49:13;;;;;;;4.20;2.60;;;;;;;;;;4993006;28;20676;-64
2022/04/18 13:51:39;;;;;;;6.10;2.80;;;;;;;;;;4994237;28;20216;-64
2022/04/18 13:54:05;;;;;;;5.10;2.70;;;;;;;;;;4993585;28;20213;-64
2022/04/18 13:56:30;;;;;;;4.20;2.70;;;;;;;;;;4992475;28;20684;-64
2022/04/18 13:58:55;;;;;;;6.10;3.20;;;;;;;;;;4993746;28;20209;-64
2022/04/18 14:01:21;;;;;;;4.80;2.90;;;;;;;;;;4992150;28;20217;-65
2022/04/18 14:03:46;;;;;;;5.07;3.03;;;;;;;;;;4992218;28;20341;-64
2022/04/18 14:06:11;;;;;;;4.70;2.80;;;;;;;;;;4993268;28;20272;-64
2022/04/18 14:08:37;;;;;;;5.13;2.95;;;;;;;;;;4992393;28;20864;-64
2022/04/18 14:11:03;;;;;;;5.03;3.28;;;;;;;;;;4992039;28;20344;-63
2022/04/18 14:13:28;;;;;;;4.85;2.83;;;;;;;;;;4993718;28;20300;-64
2022/04/18 14:21:21;;;;;;;4.90;3.10;;;;;;;;;;4993197;28;20239;-64
2022/04/18 14:23:47;;;;;;;4.57;3.10;;;;;;;;;;4992830;28;20245;-64
2022/04/18 14:26:13;;;;;;;4.55;3.13;;;;;;;;;;4992538;28;20213;-64
2022/04/18 14:28:39;;;;;;;5.43;3.08;;;;;;;;;;4990993;28;20225;-64
2022/04/18 14:31:04;;;;;;;5.00;3.30;;;;;;;;;;4992305;28;20255;-66
2022/04/18 14:33:29;;;;;;;5.13;3.50;;;;;;;;;;4991555;28;20600;-64
2022/04/18 14:35:55;;;;;;;5.28;3.33;;;;;;;;;;4993299;28;20660;-65
2022/04/18 14:38:20;;;;;;;5.78;3.00;;;;;;;;;;4992315;28;20258;-65
2022/04/18 14:40:45;;;;;;;4.20;2.80;;;;;;;;;;4992817;28;20243;-65
2022/04/18 14:43:15;;;;;;;5.82;2.92;;;;;;;;;;4991423;28;20296;-65
2022/04/18 14:45:41;;;;;;;5.97;2.95;;;;;;;;;;4992379;28;20221;-65
2022/04/18 14:48:06;;;;;;;4.78;2.92;;;;;;;;;;4992572;28;20225;-64
2022/04/18 14:50:33;;;;;;;4.40;2.92;;;;;;;;;;4993213;28;20220;-65